Disclaimer   
PNR Super Search
 ♦ 
×
HashTag:
PNR Number:
Train Type:
Train:
From Station:
To Station:
Train Class:
2SSLCCEx3AFC2A1A3E
WL Quota:
DOJ From:
DOJ To:
Blogger:
Traveller:
Predictor:
Prediction:
WLRACConf
Stamper:
Final:
WLRACConfVoidQ-ConfUnStamped
Status:
Reaction:

Search
  Go  
 
Sun Feb 1, 2015 06:00:09 ISTHomeTrainsΣChainsAtlasPNRForumGalleryNewsFAQTripsMembersLoginFeedback
Sun Feb 1, 2015 06:00:09 IST
Post PNRPNR StatusModify Search

Ticket PNR Status Inquiry - PNR: 115-xxxxxxx (PRS)

OLD STATUS

Status Last Updated on: Dec 13 2011 (8:57AM) IST

Date of Journey: Tue Dec 13, 2011   Class: Sleeper - SL   (Total Seats available for this Class/Quota: Avbl >127)
Passenger 1: Waitlist# 6 (Booking Status: W/L 28,GNWL)
Chart PREPARED

Tirupati Kakinada Port Passenger/57257

Travel Time: 10h 55m    51 halts    Distance: 387 km    Avg Speed: 35 km/hr
Type: Passenger
Zone: SCR/South Central
Departs @ 01:05 (Avg 9m late)
Platform# 5
SMTWTFS
TPTY/Tirupati Main 
Arrives @ 12:00 (Avg 1h 10m late)
Platform# 2
SMTWTFS
BZA/Vijayawada Junction 

51 halts. 60 intermediate Stations between Tirupati Main and Vijayawada Junction

Show ALL intermediate Stations  Show Old Time-Table

#TrkCodeStation NameX/OArrivesAvgDepartsAvgHaltPFDay#KmSpeedElevZoneAddress
1/==/TPTYTirupati Main»  -01:05+9510.040150mSCRChittoor Distt, Andhra Pradesh
2/==/RURenigunta JunctionX  01:20+1601:22+332m219.949113mSCRChittoor District, Andhra Pradesh
3/==/YPDYerpedu  01:34+4301:35+431m--119.86780mSCRChittoor, Andhra Pradesh
4/==/KHTSri Kalahasti  01:47+4401:48+451m2133.15668mSCRChittoor District, Andhra Pradesh
5/==/YLKYellakaru  02:01+4602:02+461m1145.26173mSCRCoastal Andhra Region, Andhra Pradesh
6/==/VKIVenkatagiriX  02:14+4402:15+451m1157.58077mSCRNellore District, Andhra Pradesh
7/==/NDZNidigalluO  02:21+4902:22+491m--165.512955mSCRSiddavaram, Andhra Pradesh
8/==/VDDVendodu  02:26+5302:28+542m--174.15755mSCRNellore, Andhra Pradesh
9/==/KQAKondaguntaXO  02:38+5302:40+532m1183.5953mSCRNellore, Andhra Pradesh
10/==/GDRGudur JunctionX  03:45+2204:00+1515m2193.36419mSCRGudur, Andhra Pradesh
11/==/MBLManuboluX  04:09+2204:10+231m--1102.86222mSCRManubolu Railway Station, Andhra Pradesh
12/==/VKTVenkatachalamX  04:22+2404:23+251m11115.27026mSCRVenkatachelam, Andhra Pradesh
13/==/VDEVedayapalemX  04:31+2904:33+292m11124.55427mSCRNellore, Andhra Pradesh
14/==/NLSNellore South  04:39-04:40-1m11129.82322mSCRNellore, Andhra Pradesh
15/==/NLRNelloreX  04:45+2204:46+241m21131.83421mSCRNellore, Andhra Pradesh
16/==/PGUPadugupaduX  04:53+2904:54+321m11135.85621mSCRKovur, Andhra Pradesh
17/==/KJJKodavaluruX  05:02+3605:03+361m--1143.25717mSCRNational Highway 5, Andhra Pradesh
18/==/TMCTalamanchiX  05:08+3805:10+392m--1148.06315mSCRNational Highway 5, Andhra Pradesh
19/==/AXRAlluru Road  05:21+3805:22+441m--1159.5498mSCRNational Highway 5, Andhra Pradesh
20/==/BTTRBitraguntaX  05:30+4605:31+1:201m11166.12515mSCRBitragunta, Andhra Pradesh
21/==/SVPMSri Venkateswarapalem  05:41+1:2005:42+1:231m--1170.2-22mSCRNational Highway 5, Andhra Pradesh
22/==/KVZKavaliX  05:44+1:3105:55+1:2311m31182.57121mSCRKavali, Andhra Pradesh
23/==/TTUTettuX  06:07+1:2606:08+1:281m--1196.87624mSCRNational Highway 5, Andhra Pradesh
24/==/UPDUlavapaduX  06:19+1:3006:20+1:331m--1210.65813mSCRUlavapadu, Andhra Pradesh
25/==/SKMSingarayakondaO  06:30+1:3606:31+1:371m11220.36426mSCRSingarayakonda, Andhra Pradesh
26/==/TNRTanguturuX  06:40+1:3806:41+1:401m--1229.95010mSCRTanguturu, Andhra Pradesh
27/==/SDMSurareddipalemX  06:51+1:3906:52+1:401m--1238.2199mSCRSurareddy Palem, Andhra Pradesh
28/==/OGLOngole  07:24+1:2007:25+1:231m11248.54712mSCROngole, Andhra Pradesh
29/==/KRVKaravadi  07:36+1:2307:37+1:241m--1257.14711mSCRKaravadi, Andhra Pradesh
30/==/ANBAmmanabroluX  07:45+1:2407:46+1:251m--1263.43316mSCRAmmanabrolu, Andhra Pradesh
31/==/RPRLRaparla HaltX  07:52-07:53-1m--1266.7659mSCRNH 214A, Andhra Pradesh
32/==/UGDUppugunduru  07:57+1:2607:58+1:271m--1271.0435mSCRUppugundur Machavaram Rd, Andhra Pradesh
33/==/CJMChinnaganjamX  08:07+1:2808:08+1:311m--1277.6479mSCRChinna Ganjam, Andhra Pradesh
34/==/KVDUKadavakuduru  08:14-08:15-1m--1282.2518mSCRKadavakuduru, Andhra Pradesh
35/==/KPLLKottapandillapalli  08:20-08:21-1m--1286.5428mSCRNH 214A, Andhra Pradesh
36/==/VTMVetapalem  08:26+1:3308:27+1:361m--1290.0478mSCRVetapalem, Andhra Pradesh
37/==/JAQJandrapeta  08:33-08:34-1m--1294.7389mSCRChirala, Andhra Pradesh
38/==/CLXChiralaX  08:39+1:2908:40+1:351m--1297.9428mSCRChirala, Andhra Pradesh
39/==/IPPMIpurupalemXO  08:46-08:47-1m--1302.1488mSCRIpurupalem, Andhra Pradesh
40/==/SPFStuartpuram  08:52+1:4308:53+1:441m--1306.1599mSCRBapatla West Rural, Andhra Pradesh
41/==/BPPBapatlaX  09:00+1:4309:01+1:441m--1312.94810mSCRBapatla, Andhra Pradesh
42/==/APLAppikatlaX  09:12+1:4609:13+1:491m--1321.7517mSCRGBC Rd, Andhra Pradesh
43/==/MCVMMachavaramX  09:21-09:22-1m--1328.5607mSCRMachavaram, Andhra Pradesh
44/==/NDONidubroluX  09:27+1:4809:28+1:531m--1333.5469mSCRNidubrolu, Andhra Pradesh
45/==/MDKUModukuruX  09:37-09:38-1m--1340.44310mSCRModukuru, Andhra Pradesh
46/==/TSRTsunduruX  09:43+1:5409:44+1:551m--1344.02012mSCRTsunduru, Andhra Pradesh
47/==/TELTenali Junction  10:19+1:3410:20+1:381m41355.59116mSCRTel: 08644-227834, Andhra Pradesh
48/==/KLXKolakalur  10:24-10:25-1m--1361.64415mSCRNandivelugu Rd, Andhra Pradesh
49/==/DIGDuggirala  10:30+1:4310:31+1:441m--1365.25016mSCRDuggirala, Andhra Pradesh
50/==/CLVRChiluvur  10:38-10:39-1m--1371.04620mSCRChiluvuru, Andhra Pradesh
51/==/PVDPeddavadlapudiX  10:44+1:4710:45+1:491m--1374.92320mSCRKL University to NH 5, Andhra Pradesh
52/==/KCCKrishna Canal JunctionXO  11:04+1:4311:05+1:501m--1382.1521mSCRTadepalli, Andhra Pradesh
53/==/BZAVijayawada Junction•XO  12:00+1:1012:30+1:1530m21386.83924mSCRVijayawada 520001, Andhra Pradesh
54/==/MBDMustabadaX  12:50+1:5212:51+1:591m--1399.75220mSCRKrishna, Andhra Pradesh
55/==/GWMGannavaram  12:59+2:0113:00+2:061m--1406.64024mSCRGannavaram, Andhra Pradesh
56/==/PAVPPedda AvutapaleX  13:07+2:0913:08+2:111m--1411.26025mSCRPedda Avutapalle, Andhra Pradesh
57/==/TOUTelaproluX  13:15+2:1513:16+2:181m--1418.33820mSCRKrishna, Andhra Pradesh
58/==/VRVLVeeravalliX  13:21-13:22-1m--1421.45621mSCRViravalli, Andhra Pradesh
59/==/NZDNuzvidX  13:29+2:1813:30+2:251m--1427.95928mSCRHanuman Junction, Andhra Pradesh
60/==/VATVatlur  13:40+2:2313:41+2:291m--1437.76016mSCREluru, Andhra Pradesh
61/==/PRHPowerpet  13:48-13:49-1m--1444.72220mSCREluru, Andhra Pradesh
62/==/EEEluruX  13:53+2:0113:54+2:041m--1446.25319mSCREluru Ph.no. 08812 226401., Andhra Pradesh
63/==/DELDenduluru  14:05+2:3414:06+2:371m--1455.92721mSCRWest Godavari, Andhra Pradesh
64/==/STPTSitampetX  14:14-14:15-1m--1459.65620mSCREGK Rd, Andhra Pradesh
65/==/BMDBhimadolu  14:21+2:2614:22+2:351m--1465.25014mSCRBhimadolu, Andhra Pradesh
66/==/PUAPulla  14:30+2:4214:31+2:501m--1471.96515mSCRPulla, Andhra Pradesh
67/==/KKRMKaikaramXO  14:35-14:36-1m--1476.24119mSCRKaikaram, Andhra Pradesh
68/==/CELChebrol  14:41+2:5114:42+3:011m--1479.63518mSCRWest Godavari District, Andhra Pradesh
69/==/VGTUnguturuX  14:47-14:48-1m--1482.66517mSCRUnguturu, Andhra Pradesh
70/==/BPYBadampudiXO  14:53+3:0414:54+3:101m--1488.03620mSCRBadampudi, Andhra Pradesh
71/==/TDDTadepalligudemO  15:04+2:4015:05+2:461m21493.93918mSCRTadepalligudem, Andhra Pradesh
72/==/NBMNavabpalem  15:19+3:1615:20+3:281m--1503.02216mSCRWest Godavari District, Andhra Pradesh
73/==/MRPLMarampalliXO  15:29-15:30-1m--1506.3417mSCRMarampalli Rd, Andhra Pradesh
74/==/NDDNidadavolu Junction  17:19+1:4717:20+1:511m--1513.95220mSCRNidadavolu jtn ph.no. 08813-210325, Andhra Pradesh
75/==/BMGMBrahmanagudemO  17:24-17:25-1m--1517.45218mSCRNidadavolu, Andhra Pradesh
76/==/CUChagallu  17:30+2:0017:31+2:041m--1521.74218mSCRWest Godavari, Andhra Pradesh
77/==/PSDAPasivedalaX  17:36-17:37-1m--1525.23722mSCRWest Godavari District, Andhra Pradesh
78/==/KVRKovvurX  17:42+2:0117:43+2:091m--1528.24125mSCRWest Godavari, Andhra Pradesh
79/==/GVNGodavariXO  17:50+2:1217:51+2:151m--1533.1724mSCRRajahmundry, Andhra Pradesh
80/==/RJYRajahmundryX  18:15+1:5418:20+1:595m31536.16723mSCRRajahmundry ph.no. 0883-2420541, Andhra Pradesh
81/==/KYMKadiyamX  18:29+2:1918:32+2:183m11546.16715mSCREast Godavari, Andhra Pradesh
82/==/KSVMKesavaramX  18:37-18:38-1m--1551.75116mSCRKesavaram, Andhra Pradesh
83/==/DWPDwarapudi  18:43+3:0218:44+3:021m--1556.04520mSCREast Godavari District, Andhra Pradesh
84/==/APTAnaparti  18:49+1:4518:50+1:451m--1559.89021mSCREast Godavari District, Andhra Pradesh
85/==/BBPMBalabhadrapuram  18:54-18:55-1m--1565.84023mSCRBalabhadhrapuram, Andhra Pradesh
86/==/BVLBikkavoluX  19:00+2:1219:01+2:121m--1569.16816mSCREast Godavari District, Andhra Pradesh
87/==/PBDPeddabrahmadevam  19:06-19:07-1m--1574.82916mSCRPedabramadvam, Andhra Pradesh
88/==/MPUMedapadu  19:12+2:1619:13+2:151m--1577.25420mSCRMedapadu, Andhra Pradesh
89/==/GDPTGudaparti  19:18-19:19-1m--1581.72021mSCRVetlapalem, Andhra Pradesh
90/==/SLOSamalkot Junction  19:33+1:5319:35+1:532m21586.33718mSCRSamalkot, Andhra Pradesh
91/==/CCTKakinada Town Junction  19:55+1:3220:00+1:325m21598.7211mSCREast Godavari, Andhra Pradesh
92/==/COAKakinada Port  20:45+58---1600.3-5mSCRKakinada, Andhra Pradesh
Scroll to Top
Scroll to Bottom


Go to Mobile site